Isles of Scilly, United Kingdom
Current Conditions -  °F | °C
As of 5:50 PM on Saturday 25 Oct 2014 (Local Time) from EGHE Reporting Station
Broken Clouds Broken Clouds  
Wind Chill: 57°   Ceiling: 3900
Heat Index: 57°   Visibility: 6mi
Dew Point: 50°   Wind: 15mph
Humidity: 77%   Direction: 240°WSW
Pressure: 30.12"   Gusts: NA
Location:  49.91°N, 6.31°W
Report Text: EGHE 251650Z 24013KT 9999 BKN039 14/10 Q1020
Loading
Personal Weather Stations






























Interactive Weather Map
Tropical Storm Tracking
New forecast layout! Learn more

10-Day Weather Forecast

Advertisements
Track Severe Weather on mobile